Time;durP1;ratioP1;P1;durP2;ratioP2;P2;SDS_P1;SDS_P2;PMS_P1;PMS_P2;Temp;Humidity;BMP_temperature;BMP_pressure;BME280_temperature;BME280_humidity;BME280_pressure;Samples;Min_cycle;Max_cycle;Signal;HPM_P1;HPM_P2
2022/07/11 00:00:14;;;;;;;4.20;1.77;;;;;;;;;;5033945;28;20045;-71
2022/07/11 00:02:40;;;;;;;4.63;1.80;;;;;;;;;;5034262;28;20504;-72
2022/07/11 00:05:08;;;;;;;2.50;1.55;;;;;;;;;;5023359;28;20436;-71
2022/07/11 00:07:34;;;;;;;3.25;1.67;;;;;;;;;;5023672;28;20048;-71
2022/07/11 00:10:01;;;;;;;3.90;1.83;;;;;;;;;;5033011;28;20032;-71
2022/07/11 00:12:27;;;;;;;4.32;1.73;;;;;;;;;;5032771;28;20045;-71
2022/07/11 00:14:56;;;;;;;4.10;1.80;;;;;;;;;;5030621;28;20445;-71
2022/07/11 00:17:25;;;;;;;2.83;1.88;;;;;;;;;;5027024;28;20037;-71
2022/07/11 00:19:52;;;;;;;3.72;1.60;;;;;;;;;;5029829;28;20076;-71
2022/07/11 00:22:18;;;;;;;5.38;1.80;;;;;;;;;;5047978;28;20036;-71
2022/07/11 00:24:44;;;;;;;3.83;1.75;;;;;;;;;;5030379;28;20386;-71
2022/07/11 00:27:10;;;;;;;4.20;1.60;;;;;;;;;;5023520;28;20044;-71
2022/07/11 00:29:36;;;;;;;6.30;2.85;;;;;;;;;;5044160;28;20529;-72
2022/07/11 00:32:03;;;;;;;4.38;2.70;;;;;;;;;;5029324;28;20455;-72
2022/07/11 00:34:29;;;;;;;5.65;2.75;;;;;;;;;;5003935;28;20124;-72
2022/07/11 00:36:55;;;;;;;6.40;4.22;;;;;;;;;;5029456;28;20048;-72
2022/07/11 00:39:21;;;;;;;8.10;5.00;;;;;;;;;;5050516;28;20073;-72
2022/07/11 00:41:47;;;;;;;6.45;3.90;;;;;;;;;;5030341;28;20398;-71
2022/07/11 00:44:14;;;;;;;4.88;2.28;;;;;;;;;;5046229;28;20048;-71
2022/07/11 00:46:40;;;;;;;3.97;1.90;;;;;;;;;;5041652;28;20048;-74
2022/07/11 00:49:06;;;;;;;2.55;1.58;;;;;;;;;;5027316;28;20089;-75
2022/07/11 00:51:32;;;;;;;5.55;2.20;;;;;;;;;;5050106;28;20125;-75
2022/07/11 00:53:59;;;;;;;4.35;2.22;;;;;;;;;;5021554;28;20450;-75
2022/07/11 00:56:26;;;;;;;4.38;2.28;;;;;;;;;;5030899;28;20041;-74
2022/07/11 00:58:54;;;;;;;6.63;2.72;;;;;;;;;;5031014;28;20041;-74
2022/07/11 01:01:20;;;;;;;6.38;2.50;;;;;;;;;;5032126;28;20052;-74
2022/07/11 01:03:47;;;;;;;4.00;1.90;;;;;;;;;;5025508;28;20522;-75
2022/07/11 01:06:13;;;;;;;5.55;2.40;;;;;;;;;;5024150;28;20081;-75
2022/07/11 01:08:40;;;;;;;3.85;2.30;;;;;;;;;;5042710;28;20042;-74
2022/07/11 01:11:12;;;;;;;6.25;2.80;;;;;;;;;;5045060;28;20038;-75
2022/07/11 01:13:39;;;;;;;8.32;2.22;;;;;;;;;;5033654;28;20165;-74
2022/07/11 01:16:12;;;;;;;5.50;2.30;;;;;;;;;;5034381;28;20456;-74
2022/07/11 01:18:39;;;;;;;4.85;2.75;;;;;;;;;;5031963;28;20045;-74
2022/07/11 01:21:09;;;;;;;4.18;2.70;;;;;;;;;;5028121;28;20052;-74
2022/07/11 01:23:36;;;;;;;4.72;2.58;;;;;;;;;;5049969;28;20042;-74
2022/07/11 01:26:02;;;;;;;7.10;2.60;;;;;;;;;;5034193;28;20072;-74
2022/07/11 01:28:28;;;;;;;6.20;2.60;;;;;;;;;;5032738;28;20390;-74
2022/07/11 01:30:54;;;;;;;5.53;2.47;;;;;;;;;;5030473;28;20068;-74
2022/07/11 01:33:20;;;;;;;5.53;2.92;;;;;;;;;;5004191;28;20048;-71
2022/07/11 01:35:46;;;;;;;8.57;3.00;;;;;;;;;;4997670;28;20126;-71
2022/07/11 01:38:12;;;;;;;7.95;2.95;;;;;;;;;;4998856;28;20498;-71
2022/07/11 01:40:38;;;;;;;6.03;3.17;;;;;;;;;;5010732;28;20064;-71
2022/07/11 01:43:04;;;;;;;8.60;3.20;;;;;;;;;;4997345;28;20451;-71
2022/07/11 01:45:30;;;;;;;9.65;3.45;;;;;;;;;;5015050;28;20073;-71
2022/07/11 01:47:56;;;;;;;8.25;3.65;;;;;;;;;;5021707;28;20063;-71
2022/07/11 01:50:22;;;;;;;9.80;3.70;;;;;;;;;;5001413;28;20363;-74
2022/07/11 01:52:49;;;;;;;9.98;3.20;;;;;;;;;;4997045;28;20073;-74
2022/07/11 01:55:15;;;;;;;6.38;3.13;;;;;;;;;;5005979;28;20383;-74
2022/07/11 01:57:41;;;;;;;9.77;3.20;;;;;;;;;;4996931;28;20038;-74
2022/07/11 02:00:10;;;;;;;9.18;3.40;;;;;;;;;;4977261;28;20509;-71
2022/07/11 02:02:37;;;;;;;9.30;3.25;;;;;;;;;;4995136;28;20506;-71
2022/07/11 02:05:03;;;;;;;10.43;3.47;;;;;;;;;;5013680;28;20042;-74
2022/07/11 02:10:14;;;;;;;13.95;3.70;;;;;;;;;;5005196;28;20037;-74
2022/07/11 02:12:40;;;;;;;6.78;3.83;;;;;;;;;;4996726;28;20049;-74
2022/07/11 02:15:06;;;;;;;11.68;3.55;;;;;;;;;;5013806;28;20106;-74
2022/07/11 02:17:32;;;;;;;9.05;3.40;;;;;;;;;;4996797;28;20054;-74
2022/07/11 02:19:58;;;;;;;9.48;3.60;;;;;;;;;;5021405;28;20486;-74
2022/07/11 02:22:24;;;;;;;9.43;3.58;;;;;;;;;;4980088;28;20069;-74
2022/07/11 02:24:50;;;;;;;11.05;3.47;;;;;;;;;;4995503;28;20034;-75
2022/07/11 02:27:17;;;;;;;11.50;3.42;;;;;;;;;;4996069;28;20443;-75
2022/07/11 02:29:43;;;;;;;7.07;3.50;;;;;;;;;;4999731;28;20041;-74
2022/07/11 02:32:09;;;;;;;7.72;3.70;;;;;;;;;;5000259;28;20394;-75
2022/07/11 02:34:35;;;;;;;9.45;3.42;;;;;;;;;;4980050;28;20049;-74
2022/07/11 02:37:01;;;;;;;8.48;3.60;;;;;;;;;;4996552;28;20045;-74
2022/07/11 02:39:27;;;;;;;7.18;3.72;;;;;;;;;;4996139;28;20033;-74
2022/07/11 02:41:53;;;;;;;9.38;4.05;;;;;;;;;;5007908;28;20050;-75
2022/07/11 02:44:19;;;;;;;10.57;4.00;;;;;;;;;;4979360;28;20092;-75
2022/07/11 02:46:45;;;;;;;10.60;3.88;;;;;;;;;;4998100;28;20041;-75
2022/07/11 02:49:11;;;;;;;8.73;4.13;;;;;;;;;;4994984;28;20041;-75
2022/07/11 02:51:38;;;;;;;8.05;3.88;;;;;;;;;;5020620;28;20502;-75
2022/07/11 02:54:04;;;;;;;9.18;4.13;;;;;;;;;;4972055;28;20044;-75
2022/07/11 02:56:30;;;;;;;9.23;3.63;;;;;;;;;;4995595;28;20309;-75
2022/07/11 02:58:56;;;;;;;10.95;4.32;;;;;;;;;;4995823;28;20045;-75
2022/07/11 03:01:22;;;;;;;10.18;4.00;;;;;;;;;;5000387;28;20414;-74
2022/07/11 03:03:48;;;;;;;7.80;4.18;;;;;;;;;;5000524;28;20069;-75
2022/07/11 03:06:14;;;;;;;9.27;3.88;;;;;;;;;;4995570;28;20069;-75
2022/07/11 03:08:40;;;;;;;9.50;4.05;;;;;;;;;;4979566;28;20041;-75
2022/07/11 03:11:06;;;;;;;9.35;3.72;;;;;;;;;;4996148;28;20109;-75
2022/07/11 03:13:32;;;;;;;8.80;3.55;;;;;;;;;;5010089;28;20176;-75
2022/07/11 03:15:59;;;;;;;6.43;4.15;;;;;;;;;;5004407;28;20045;-75
2022/07/11 03:18:25;;;;;;;7.65;3.97;;;;;;;;;;4995134;28;20049;-75
2022/07/11 03:20:51;;;;;;;11.15;4.13;;;;;;;;;;4995659;28;20502;-75
2022/07/11 03:23:18;;;;;;;9.57;4.40;;;;;;;;;;5023883;28;20056;-74
2022/07/11 03:25:44;;;;;;;8.32;4.10;;;;;;;;;;5009586;28;20084;-75
2022/07/11 03:28:10;;;;;;;10.05;4.10;;;;;;;;;;4997025;28;20565;-75
2022/07/11 03:30:36;;;;;;;8.85;4.40;;;;;;;;;;4999451;28;20442;-75
2022/07/11 03:33:02;;;;;;;6.63;3.60;;;;;;;;;;4995195;28;20512;-75
2022/07/11 03:35:40;;;;;;;8.57;3.97;;;;;;;;;;5013097;28;20060;-75
2022/07/11 03:38:06;;;;;;;8.50;4.30;;;;;;;;;;5015012;28;20037;-75
2022/07/11 03:40:33;;;;;;;7.13;3.53;;;;;;;;;;5014723;28;20038;-75
2022/07/11 03:42:59;;;;;;;9.88;4.20;;;;;;;;;;4998275;28;20038;-75
2022/07/11 03:45:25;;;;;;;7.30;4.05;;;;;;;;;;5013785;28;20029;-74
2022/07/11 03:47:51;;;;;;;8.25;3.10;;;;;;;;;;5015005;28;20045;-74
2022/07/11 03:50:17;;;;;;;6.82;3.15;;;;;;;;;;4998068;28;20044;-75
2022/07/11 03:52:44;;;;;;;6.10;2.67;;;;;;;;;;5014854;28;20076;-75
2022/07/11 03:55:10;;;;;;;4.60;2.70;;;;;;;;;;5014287;28;20104;-75
2022/07/11 03:57:36;;;;;;;4.95;2.55;;;;;;;;;;5032123;28;20481;-75
2022/07/11 04:00:05;;;;;;;4.13;2.40;;;;;;;;;;4998192;28;20046;-75
2022/07/11 04:02:32;;;;;;;5.13;2.50;;;;;;;;;;5005928;28;20045;-75
2022/07/11 04:04:58;;;;;;;4.85;2.33;;;;;;;;;;5013638;28;20075;-74
2022/07/11 04:07:24;;;;;;;4.75;2.40;;;;;;;;;;5013232;28;20465;-74
2022/07/11 04:09:50;;;;;;;5.40;2.55;;;;;;;;;;4998048;28;20092;-74
2022/07/11 04:12:19;;;;;;;5.15;2.15;;;;;;;;;;5014508;28;20073;-75
2022/07/11 04:14:45;;;;;;;6.38;2.33;;;;;;;;;;5014113;28;20038;-75
2022/07/11 04:17:12;;;;;;;3.55;2.08;;;;;;;;;;4997696;28;20045;-72
2022/07/11 04:19:42;;;;;;;4.82;2.33;;;;;;;;;;5014012;28;20085;-72
2022/07/11 04:22:08;;;;;;;4.72;2.30;;;;;;;;;;5014285;28;20045;-72
2022/07/11 04:24:34;;;;;;;3.60;2.05;;;;;;;;;;5023769;28;20042;-71
2022/07/11 04:27:00;;;;;;;4.10;2.08;;;;;;;;;;5013987;28;20041;-72
2022/07/11 04:29:27;;;;;;;3.33;1.85;;;;;;;;;;5014134;28;20410;-74
2022/07/11 04:31:53;;;;;;;5.25;1.77;;;;;;;;;;4996887;28;20053;-74
2022/07/11 04:34:19;;;;;;;3.78;1.73;;;;;;;;;;5012484;28;20038;-74
2022/07/11 04:36:46;;;;;;;4.35;2.08;;;;;;;;;;5011674;28;20405;-75
2022/07/11 04:39:12;;;;;;;3.22;1.73;;;;;;;;;;5014241;28;20485;-74
2022/07/11 04:41:38;;;;;;;3.17;2.03;;;;;;;;;;4993210;28;20490;-75
2022/07/11 04:44:04;;;;;;;5.05;2.08;;;;;;;;;;5011182;28;20050;-75
2022/07/11 04:46:31;;;;;;;4.07;1.73;;;;;;;;;;5012831;28;20041;-74
2022/07/11 04:48:57;;;;;;;3.45;1.80;;;;;;;;;;5012417;28;20052;-74
2022/07/11 04:51:24;;;;;;;3.47;1.40;;;;;;;;;;5016940;28;20041;-74
2022/07/11 04:53:50;;;;;;;2.70;1.38;;;;;;;;;;5017673;28;20056;-74
2022/07/11 04:56:16;;;;;;;3.50;1.42;;;;;;;;;;5006994;28;20037;-75
2022/07/11 04:58:42;;;;;;;4.60;1.50;;;;;;;;;;5000236;28;20096;-75
2022/07/11 05:01:09;;;;;;;4.55;2.00;;;;;;;;;;4998367;28;20554;-75
2022/07/11 05:03:35;;;;;;;3.67;1.60;;;;;;;;;;4998112;28;20375;-72
2022/07/11 05:06:01;;;;;;;3.33;1.30;;;;;;;;;;4998464;28;20053;-72
2022/07/11 05:08:29;;;;;;;3.95;1.38;;;;;;;;;;5000193;28;20168;-72
2022/07/11 05:10:55;;;;;;;3.55;1.30;;;;;;;;;;4997989;28;20045;-72
2022/07/11 05:13:21;;;;;;;2.83;1.27;;;;;;;;;;4998517;28;20415;-72
2022/07/11 05:15:47;;;;;;;3.03;1.38;;;;;;;;;;4981421;28;20157;-73
2022/07/11 05:18:13;;;;;;;2.85;1.13;;;;;;;;;;4999110;28;20049;-72
2022/07/11 05:20:39;;;;;;;3.30;1.35;;;;;;;;;;4998081;28;20046;-72
2022/07/11 05:23:05;;;;;;;2.30;0.98;;;;;;;;;;4997979;28;20045;-72
2022/07/11 05:25:31;;;;;;;2.03;1.20;;;;;;;;;;4997807;28;20065;-72
2022/07/11 05:27:57;;;;;;;3.05;1.30;;;;;;;;;;4998183;28;20034;-72
2022/07/11 05:30:23;;;;;;;2.47;1.10;;;;;;;;;;5003196;28;20100;-72
2022/07/11 05:32:50;;;;;;;3.40;1.65;;;;;;;;;;4983369;28;20178;-73
2022/07/11 05:35:16;;;;;;;3.15;1.75;;;;;;;;;;4997674;28;20037;-72
2022/07/11 05:37:42;;;;;;;5.07;1.40;;;;;;;;;;4996735;28;20041;-72
2022/07/11 05:40:08;;;;;;;2.72;1.50;;;;;;;;;;5000235;28;20034;-73
2022/07/11 05:42:34;;;;;;;2.60;1.50;;;;;;;;;;5007644;28;20087;-72
2022/07/11 05:45:00;;;;;;;3.58;1.50;;;;;;;;;;4981485;28;20074;-72
2022/07/11 05:47:27;;;;;;;2.80;1.85;;;;;;;;;;5002883;28;20049;-72
2022/07/11 05:49:53;;;;;;;2.60;1.67;;;;;;;;;;5014766;28;20045;-72
2022/07/11 05:52:19;;;;;;;2.33;1.27;;;;;;;;;;5003911;28;20053;-72
2022/07/11 05:54:45;;;;;;;3.05;1.02;;;;;;;;;;4997131;28;20118;-72
2022/07/11 05:57:11;;;;;;;2.38;1.00;;;;;;;;;;4984421;28;20045;-74
2022/07/11 05:59:38;;;;;;;4.75;2.10;;;;;;;;;;5005693;28;20510;-74
2022/07/11 06:02:04;;;;;;;5.07;2.38;;;;;;;;;;5014086;28;20043;-75
2022/07/11 06:04:32;;;;;;;2.40;1.63;;;;;;;;;;5018343;28;20052;-75
2022/07/11 06:06:58;;;;;;;2.63;1.00;;;;;;;;;;4997953;28;20084;-75
2022/07/11 06:09:24;;;;;;;2.15;0.90;;;;;;;;;;4987618;28;20030;-75
2022/07/11 06:11:51;;;;;;;1.38;0.70;;;;;;;;;;5005141;28;20042;-74
2022/07/11 06:14:17;;;;;;;2.10;1.00;;;;;;;;;;4998638;28;20550;-74
2022/07/11 06:16:43;;;;;;;2.55;0.90;;;;;;;;;;4989118;28;20046;-74
2022/07/11 06:19:09;;;;;;;2.97;0.80;;;;;;;;;;5007110;28;20038;-75
2022/07/11 06:21:36;;;;;;;2.95;1.00;;;;;;;;;;5003062;28;20486;-74
2022/07/11 06:24:02;;;;;;;1.92;0.70;;;;;;;;;;5002852;28;20126;-75
2022/07/11 06:26:28;;;;;;;3.80;0.80;;;;;;;;;;5003016;28;20045;-74
2022/07/11 06:28:55;;;;;;;2.13;0.52;;;;;;;;;;4996033;28;20085;-75
2022/07/11 06:31:21;;;;;;;2.35;0.70;;;;;;;;;;5032560;28;20552;-75
2022/07/11 06:33:54;;;;;;;3.83;0.90;;;;;;;;;;5026530;28;20406;-74
2022/07/11 06:36:22;;;;;;;2.13;0.70;;;;;;;;;;5026121;28;20080;-75
2022/07/11 06:38:48;;;;;;;1.85;0.50;;;;;;;;;;5024085;28;20120;-74
2022/07/11 06:41:15;;;;;;;1.80;0.60;;;;;;;;;;5024760;28;20088;-74
2022/07/11 06:43:41;;;;;;;3.20;1.10;;;;;;;;;;5027937;28;20040;-75
2022/07/11 06:46:07;;;;;;;1.15;0.50;;;;;;;;;;5047004;28;20033;-74
2022/07/11 06:48:33;;;;;;;2.88;1.05;;;;;;;;;;5027170;28;20046;-75
2022/07/11 06:50:59;;;;;;;1.15;0.65;;;;;;;;;;5005134;28;20506;-77
2022/07/11 06:53:25;;;;;;;2.33;0.80;;;;;;;;;;5023327;28;20048;-76
2022/07/11 06:55:51;;;;;;;1.55;0.60;;;;;;;;;;5041847;28;20103;-76
2022/07/11 06:58:32;;;;;;;2.53;0.60;;;;;;;;;;5015852;28;20045;-75
2022/07/11 07:01:02;;;;;;;1.20;0.70;;;;;;;;;;5000196;28;20044;-75
2022/07/11 07:03:29;;;;;;;1.25;0.50;;;;;;;;;;4998738;28;20116;-75
2022/07/11 07:05:56;;;;;;;1.58;0.47;;;;;;;;;;5014979;28;20088;-75
2022/07/11 07:08:26;;;;;;;2.17;1.23;;;;;;;;;;5015948;28;20049;-75
2022/07/11 07:10:52;;;;;;;1.40;0.60;;;;;;;;;;4999020;28;20033;-74
2022/07/11 07:13:20;;;;;;;2.30;1.30;;;;;;;;;;5015413;28;20048;-77
2022/07/11 07:15:46;;;;;;;1.88;0.95;;;;;;;;;;5032219;28;20052;-76
2022/07/11 07:18:12;;;;;;;1.27;0.60;;;;;;;;;;5015319;28;20045;-75
2022/07/11 07:20:38;;;;;;;0.82;0.40;;;;;;;;;;5015745;28;20083;-75
2022/07/11 07:23:04;;;;;;;0.50;0.30;;;;;;;;;;5026477;28;20128;-76
2022/07/11 07:25:30;;;;;;;1.38;0.50;;;;;;;;;;5015081;28;20132;-76
2022/07/11 07:27:56;;;;;;;1.52;0.65;;;;;;;;;;5014080;28;20029;-75
2022/07/11 07:30:22;;;;;;;1.00;0.50;;;;;;;;;;5021181;28;20068;-76
2022/07/11 07:32:49;;;;;;;3.15;1.15;;;;;;;;;;5006288;28;20077;-76
2022/07/11 07:35:15;;;;;;;1.20;0.60;;;;;;;;;;5018500;28;20045;-76
2022/07/11 07:37:41;;;;;;;1.08;0.40;;;;;;;;;;5006041;28;20056;-76
2022/07/11 07:40:07;;;;;;;0.65;0.40;;;;;;;;;;5014786;28;20044;-76
2022/07/11 07:42:33;;;;;;;0.70;0.40;;;;;;;;;;5018881;28;20045;-76
2022/07/11 07:44:59;;;;;;;0.63;0.38;;;;;;;;;;5004943;28;20096;-76
2022/07/11 07:47:25;;;;;;;1.75;0.43;;;;;;;;;;5021278;28;20042;-76
2022/07/11 07:49:51;;;;;;;0.60;0.30;;;;;;;;;;5018365;28;20045;-74
2022/07/11 07:52:17;;;;;;;1.23;0.40;;;;;;;;;;5022212;28;20041;-75
2022/07/11 07:54:43;;;;;;;0.88;0.43;;;;;;;;;;5015611;28;20536;-73
2022/07/11 07:57:09;;;;;;;1.38;0.45;;;;;;;;;;5014904;28;20498;-75
2022/07/11 07:59:35;;;;;;;0.75;0.40;;;;;;;;;;5015419;28;20493;-76
2022/07/11 08:02:02;;;;;;;3.03;0.30;;;;;;;;;;5014788;28;20104;-76
2022/07/11 08:04:29;;;;;;;1.33;0.40;;;;;;;;;;5025616;28;20042;-74
2022/07/11 08:06:56;;;;;;;2.38;0.55;;;;;;;;;;5014034;28;20045;-76
2022/07/11 08:09:22;;;;;;;0.75;0.30;;;;;;;;;;5014121;28;20660;-75
2022/07/11 08:11:48;;;;;;;0.50;0.25;;;;;;;;;;5014333;28;20095;-75
2022/07/11 08:14:15;;;;;;;0.82;0.30;;;;;;;;;;5031710;28;20490;-73
2022/07/11 08:16:41;;;;;;;2.10;0.90;;;;;;;;;;5017123;28;20514;-75
2022/07/11 08:19:07;;;;;;;2.03;1.10;;;;;;;;;;5013574;28;20383;-75
2022/07/11 08:21:34;;;;;;;1.33;0.50;;;;;;;;;;5014181;28;20046;-74
2022/07/11 08:24:00;;;;;;;1.92;0.50;;;;;;;;;;5014090;28;20041;-73
2022/07/11 08:26:27;;;;;;;1.52;0.73;;;;;;;;;;5014440;28;20037;-74
2022/07/11 08:28:53;;;;;;;0.88;0.40;;;;;;;;;;5017846;28;20045;-74
2022/07/11 08:31:19;;;;;;;0.63;0.38;;;;;;;;;;5026043;28;20409;-74
2022/07/11 08:33:46;;;;;;;0.98;0.40;;;;;;;;;;5013869;28;20048;-76
2022/07/11 08:36:12;;;;;;;0.88;0.40;;;;;;;;;;5024812;28;20175;-76
2022/07/11 08:38:39;;;;;;;0.75;0.40;;;;;;;;;;5019709;28;20042;-75
2022/07/11 08:41:05;;;;;;;1.10;0.30;;;;;;;;;;5012840;28;20128;-75
2022/07/11 08:43:32;;;;;;;1.17;0.40;;;;;;;;;;5016965;28;20069;-75
2022/07/11 08:45:59;;;;;;;0.75;0.30;;;;;;;;;;5018731;28;20081;-76
2022/07/11 08:48:25;;;;;;;0.50;0.30;;;;;;;;;;5018288;28;20037;-76
2022/07/11 08:50:51;;;;;;;1.13;0.30;;;;;;;;;;5045890;28;20425;-72
2022/07/11 08:53:18;;;;;;;0.73;0.30;;;;;;;;;;5023784;28;20045;-76
2022/07/11 08:55:44;;;;;;;1.17;0.47;;;;;;;;;;5022975;28;20426;-73
2022/07/11 08:58:11;;;;;;;1.45;0.77;;;;;;;;;;5018483;28;20033;-73
2022/07/11 09:00:38;;;;;;;0.93;0.60;;;;;;;;;;5027135;28;20084;-73
2022/07/11 09:03:05;;;;;;;0.95;0.30;;;;;;;;;;5013221;28;20071;-71
2022/07/11 09:05:32;;;;;;;1.02;0.35;;;;;;;;;;5005621;28;20041;-78
2022/07/11 09:07:58;;;;;;;0.43;0.20;;;;;;;;;;5017205;28;20041;-74
2022/07/11 09:10:24;;;;;;;0.40;0.30;;;;;;;;;;5015118;28;20034;-73
2022/07/11 09:13:01;;;;;;;5.78;0.68;;;;;;;;;;5013955;28;20041;-73
2022/07/11 09:15:33;;;;;;;0.85;0.30;;;;;;;;;;5013113;28;20048;-72
2022/07/11 09:17:59;;;;;;;0.95;0.55;;;;;;;;;;5031627;28;20038;-73
2022/07/11 09:20:25;;;;;;;1.38;0.60;;;;;;;;;;5015985;28;20033;-73
2022/07/11 09:25:42;;;;;;;0.88;0.40;;;;;;;;;;5034303;28;20492;-74
2022/07/11 09:28:08;;;;;;;2.10;0.30;;;;;;;;;;5030891;28;20065;-72
2022/07/11 09:30:39;;;;;;;0.70;0.30;;;;;;;;;;5014211;28;20054;-73
2022/07/11 09:33:09;;;;;;;0.57;0.40;;;;;;;;;;5019932;28;20053;-73
2022/07/11 09:35:36;;;;;;;0.70;0.40;;;;;;;;;;5025271;28;20033;-75
2022/07/11 09:38:04;;;;;;;1.27;0.32;;;;;;;;;;5018055;28;20088;-76
2022/07/11 09:40:30;;;;;;;0.70;0.30;;;;;;;;;;5017825;28;20053;-72
2022/07/11 09:42:57;;;;;;;0.70;0.45;;;;;;;;;;5017626;28;20540;-73
2022/07/11 09:45:27;;;;;;;0.80;0.32;;;;;;;;;;5025225;28;20397;-72
2022/07/11 09:47:54;;;;;;;1.45;0.30;;;;;;;;;;5005066;28;20060;-71
2022/07/11 09:50:24;;;;;;;1.55;0.50;;;;;;;;;;5016657;28;20096;-71
2022/07/11 09:52:59;;;;;;;1.23;0.40;;;;;;;;;;5017633;28;20080;-73
2022/07/11 09:55:29;;;;;;;0.60;0.30;;;;;;;;;;5018021;28;20029;-77
2022/07/11 09:57:55;;;;;;;3.17;0.40;;;;;;;;;;5017850;28;20068;-73
2022/07/11 10:00:21;;;;;;;2.47;0.32;;;;;;;;;;5016042;28;20092;-71
2022/07/11 10:02:49;;;;;;;2.20;0.40;;;;;;;;;;5003487;28;20053;-71
2022/07/11 10:05:15;;;;;;;1.10;0.40;;;;;;;;;;5000547;28;20045;-73
2022/07/11 10:07:41;;;;;;;1.85;0.32;;;;;;;;;;5029702;28;20103;-75
2022/07/11 10:10:08;;;;;;;1.55;0.30;;;;;;;;;;5016779;28;20120;-74
2022/07/11 10:12:34;;;;;;;0.55;0.35;;;;;;;;;;5017502;28;20540;-75
2022/07/11 10:15:06;;;;;;;0.50;0.30;;;;;;;;;;5016339;28;20053;-73
2022/07/11 10:17:51;;;;;;;1.05;0.30;;;;;;;;;;5017396;28;20041;-77
2022/07/11 10:20:20;;;;;;;2.08;0.40;;;;;;;;;;5016204;28;20124;-74
2022/07/11 10:22:56;;;;;;;3.00;0.50;;;;;;;;;;5001627;28;20038;-75
2022/07/11 10:25:28;;;;;;;0.68;0.40;;;;;;;;;;5015677;28;20045;-75
2022/07/11 10:28:13;;;;;;;0.40;0.30;;;;;;;;;;5018698;28;20053;-75
2022/07/11 10:30:49;;;;;;;0.63;0.40;;;;;;;;;;5022595;28;20054;-74
2022/07/11 10:33:16;;;;;;;1.85;0.40;;;;;;;;;;5027275;28;20050;-74
2022/07/11 10:35:46;;;;;;;0.20;0.20;;;;;;;;;;5019907;28;20406;-76
2022/07/11 10:38:13;;;;;;;0.60;0.20;;;;;;;;;;5020778;28;20041;-76
2022/07/11 10:40:47;;;;;;;0.63;0.30;;;;;;;;;;5018986;28;20045;-76
2022/07/11 10:43:32;;;;;;;0.95;0.40;;;;;;;;;;5017499;28;20051;-77
2022/07/11 10:45:58;;;;;;;;;;;;;;;;;;5019426;28;20049;-76
2022/07/11 10:48:24;;;;;;;;;;;;;;;;;;5019817;28;20293;-76
2022/07/11 10:50:50;;;;;;;;;;;;;;;;;;5002836;28;19924;-75
2022/07/11 10:53:16;;;;;;;;;;;;;;;;;;5019913;28;19917;-82
2022/07/11 10:55:47;;;;;;;1.88;0.70;;;;;;;;;;5018974;28;19917;-81
2022/07/11 10:58:26;;;;;;;0.73;0.30;;;;;;;;;;5035610;28;20041;-81
2022/07/11 11:01:14;;;;;;;1.38;0.50;;;;;;;;;;5005157;28;20037;-78
2022/07/11 11:03:41;;;;;;;0.95;0.40;;;;;;;;;;4999876;28;20524;-73
2022/07/11 11:06:08;;;;;;;2.00;0.40;;;;;;;;;;4999370;28;20585;-74
2022/07/11 11:08:37;;;;;;;0.98;0.50;;;;;;;;;;5032971;28;20076;-73
2022/07/11 11:11:04;;;;;;;1.55;0.55;;;;;;;;;;5015014;28;20108;-76
2022/07/11 11:13:30;;;;;;;0.80;0.40;;;;;;;;;;5001138;28;20397;-72
2022/07/11 11:16:00;;;;;;;1.13;0.55;;;;;;;;;;5014788;28;20045;-73
2022/07/11 11:18:26;;;;;;;2.58;0.68;;;;;;;;;;4998689;28;20497;-73
2022/07/11 11:21:01;;;;;;;4.95;0.70;;;;;;;;;;5029076;28;20540;-73
2022/07/11 11:23:39;;;;;;;2.17;0.65;;;;;;;;;;5015962;28;20120;-73
2022/07/11 11:26:09;;;;;;;1.20;0.70;;;;;;;;;;5014785;28;20051;-73
2022/07/11 11:28:36;;;;;;;6.78;0.73;;;;;;;;;;5015156;28;20037;-73
2022/07/11 11:31:04;;;;;;;1.20;0.60;;;;;;;;;;5025086;28;20122;-73
2022/07/11 11:33:31;;;;;;;7.55;0.75;;;;;;;;;;5004987;28;20049;-73
2022/07/11 11:36:01;;;;;;;1.00;0.57;;;;;;;;;;5021942;28;20076;-72
2022/07/11 11:38:27;;;;;;;1.10;0.50;;;;;;;;;;5019005;28;20469;-73
2022/07/11 11:40:54;;;;;;;1.10;0.50;;;;;;;;;;5028175;28;20041;-74
2022/07/11 11:43:20;;;;;;;2.47;0.60;;;;;;;;;;5017248;28;20038;-74
2022/07/11 11:45:50;;;;;;;2.00;0.70;;;;;;;;;;5015114;28;20485;-75
2022/07/11 11:48:34;;;;;;;3.05;0.50;;;;;;;;;;4998495;28;20091;-75
2022/07/11 11:51:19;;;;;;;4.53;0.70;;;;;;;;;;5032499;28;20037;-76
2022/07/11 11:53:54;;;;;;;1.10;0.60;;;;;;;;;;4999761;28;20041;-72
2022/07/11 11:56:30;;;;;;;0.77;0.40;;;;;;;;;;5015586;28;20049;-73
2022/07/11 11:59:00;;;;;;;3.50;0.60;;;;;;;;;;5015034;28;20276;-73
2022/07/11 12:01:27;;;;;;;3.92;0.80;;;;;;;;;;5015521;28;20072;-73
2022/07/11 12:03:55;;;;;;;1.50;0.70;;;;;;;;;;5032896;28;20466;-72
2022/07/11 12:06:23;;;;;;;0.93;0.60;;;;;;;;;;5016690;28;20053;-71
2022/07/11 12:08:49;;;;;;;1.85;0.90;;;;;;;;;;5016064;28;20049;-76
2022/07/11 12:11:16;;;;;;;1.92;0.82;;;;;;;;;;5014058;28;20056;-76
2022/07/11 12:13:42;;;;;;;4.07;0.55;;;;;;;;;;4998811;28;20048;-77
2022/07/11 12:19:04;;;;;;;3.20;0.68;;;;;;;;;;5018559;28;20045;-78
2022/07/11 12:21:31;;;;;;;3.40;0.70;;;;;;;;;;5014278;28;20379;-77
2022/07/11 12:24:01;;;;;;;179.73;9.55;;;;;;;;;;5014854;28;20055;-77
2022/07/11 12:26:32;;;;;;;4.15;1.10;;;;;;;;;;5014787;28;20029;-76
2022/07/11 12:29:16;;;;;;;2.63;0.70;;;;;;;;;;5014183;28;20040;-73
2022/07/11 12:31:54;;;;;;;10.25;1.40;;;;;;;;;;4997661;28;20041;-74
2022/07/11 12:34:44;;;;;;;4.57;3.60;;;;;;;;;;5026032;28;20037;-79
2022/07/11 12:37:12;;;;;;;2.03;0.80;;;;;;;;;;4993893;28;20057;-72
2022/07/11 12:39:40;;;;;;;1.73;0.70;;;;;;;;;;5013744;28;20116;-73
2022/07/11 12:42:25;;;;;;;1.98;0.60;;;;;;;;;;5014072;28;20110;-72
2022/07/11 12:45:07;;;;;;;1.83;0.40;;;;;;;;;;5013677;28;20038;-73
2022/07/11 12:47:34;;;;;;;1.10;0.60;;;;;;;;;;5015594;28;20041;-72
2022/07/11 12:50:07;;;;;;;0.90;0.60;;;;;;;;;;5015582;28;20073;-72
2022/07/11 12:52:37;;;;;;;1.10;0.57;;;;;;;;;;4997635;28;20572;-74
2022/07/11 12:55:03;;;;;;;2.92;0.50;;;;;;;;;;5017789;28;20425;-74
2022/07/11 12:57:29;;;;;;;1.25;0.52;;;;;;;;;;4997914;28;20505;-74
2022/07/11 12:59:56;;;;;;;1.77;0.70;;;;;;;;;;5015908;28;20084;-71
2022/07/11 13:02:29;;;;;;;1.75;0.60;;;;;;;;;;5014093;28;20450;-72
2022/07/11 13:04:55;;;;;;;2.03;0.52;;;;;;;;;;5004780;28;20128;-72
2022/07/11 13:10:19;;;;;;;2.08;0.50;;;;;;;;;;5018671;28;20050;-72
2022/07/11 13:12:46;;;;;;;1.10;0.50;;;;;;;;;;5016760;28;20064;-74
2022/07/11 13:15:15;;;;;;;0.82;0.43;;;;;;;;;;5018572;28;20041;-75
2022/07/11 13:17:42;;;;;;;2.25;0.57;;;;;;;;;;5013262;28;20045;-75
2022/07/11 13:20:09;;;;;;;1.00;0.57;;;;;;;;;;5011518;28;20053;-75
2022/07/11 13:22:36;;;;;;;1.45;0.47;;;;;;;;;;5014883;28;20085;-75
2022/07/11 13:25:02;;;;;;;1.20;0.60;;;;;;;;;;5016612;28;20363;-73
2022/07/11 13:27:29;;;;;;;0.90;0.50;;;;;;;;;;5015653;28;20034;-74
2022/07/11 13:29:56;;;;;;;1.65;0.60;;;;;;;;;;5033837;28;20037;-73
2022/07/11 13:32:22;;;;;;;1.88;0.50;;;;;;;;;;5031741;28;20041;-73
2022/07/11 13:34:49;;;;;;;0.88;0.50;;;;;;;;;;5016008;28;20049;-73
2022/07/11 13:37:15;;;;;;;1.30;0.80;;;;;;;;;;5019952;28;20120;-74
2022/07/11 13:39:42;;;;;;;2.17;0.60;;;;;;;;;;5029028;28;20045;-73
2022/07/11 13:42:08;;;;;;;1.58;0.70;;;;;;;;;;5027737;28;20073;-74
2022/07/11 13:44:34;;;;;;;1.60;0.70;;;;;;;;;;5010810;28;20505;-74
2022/07/11 13:47:00;;;;;;;1.65;0.80;;;;;;;;;;5008846;28;20083;-74
2022/07/11 13:49:26;;;;;;;1.40;0.60;;;;;;;;;;5030838;28;20043;-73
2022/07/11 13:51:52;;;;;;;1.08;0.50;;;;;;;;;;5022388;28;20092;-74
2022/07/11 13:54:18;;;;;;;2.42;1.60;;;;;;;;;;5012239;28;20036;-73
2022/07/11 13:56:44;;;;;;;1.83;1.10;;;;;;;;;;5012437;28;20426;-74
2022/07/11 13:59:11;;;;;;;2.60;1.60;;;;;;;;;;5016871;28;20049;-73
2022/07/11 14:01:37;;;;;;;2.58;1.73;;;;;;;;;;5022476;28;20038;-74
2022/07/11 14:04:03;;;;;;;2.58;0.88;;;;;;;;;;5016724;28;20409;-73
2022/07/11 14:06:30;;;;;;;1.00;0.68;;;;;;;;;;5016568;28;20376;-73
2022/07/11 14:08:56;;;;;;;1.33;0.60;;;;;;;;;;5016791;28;20033;-73
2022/07/11 14:11:22;;;;;;;3.15;0.90;;;;;;;;;;5024193;28;20033;-73
2022/07/11 14:13:48;;;;;;;1.60;0.93;;;;;;;;;;5020677;28;20049;-74
2022/07/11 14:16:14;;;;;;;3.35;0.80;;;;;;;;;;5027645;28;20046;-73
2022/07/11 14:18:41;;;;;;;1.63;0.90;;;;;;;;;;5015987;28;20049;-73
2022/07/11 14:21:07;;;;;;;1.40;0.80;;;;;;;;;;5022406;28;20049;-73
2022/07/11 14:23:34;;;;;;;2.30;0.80;;;;;;;;;;5027678;28;20056;-74
2022/07/11 14:26:00;;;;;;;4.65;1.00;;;;;;;;;;5018022;28;20068;-73
2022/07/11 14:28:28;;;;;;;1.52;0.63;;;;;;;;;;5020962;28;20041;-74
2022/07/11 14:30:54;;;;;;;1.88;0.73;;;;;;;;;;5024053;28;20053;-74
2022/07/11 14:33:20;;;;;;;1.77;0.80;;;;;;;;;;5001612;28;20044;-74
2022/07/11 14:35:46;;;;;;;1.20;0.60;;;;;;;;;;5014944;28;20037;-73
2022/07/11 14:38:12;;;;;;;1.30;0.65;;;;;;;;;;5000120;28;20069;-74
2022/07/11 14:40:38;;;;;;;2.33;0.80;;;;;;;;;;5033451;28;20045;-72
2022/07/11 14:43:04;;;;;;;1.30;0.73;;;;;;;;;;5021375;28;20033;-74
2022/07/11 14:45:30;;;;;;;1.00;0.60;;;;;;;;;;5020984;28;20082;-74
2022/07/11 14:47:56;;;;;;;1.40;0.70;;;;;;;;;;5010831;28;20053;-74
2022/07/11 14:50:22;;;;;;;1.88;0.60;;;;;;;;;;5000058;28;20034;-73
2022/07/11 14:52:49;;;;;;;1.58;0.90;;;;;;;;;;5016663;28;20038;-74
2022/07/11 14:55:15;;;;;;;3.70;0.80;;;;;;;;;;4999405;28;20120;-73